Pink Coral — 9HPY9 — position and weather

sailwx.info

Track history (hours):
 
Tides and Currents Weather Stations Pressure Air Temp Water Temp Dewpoint Dewpoint Depression Visibility Wind Speed Wind Dir Waves Ship Positions

Pink Coral

Last reported at 2018-Apr-24 00:26 UTC. Time now 2018-Apr-24 00:36 UTC.
Position N 35°58' E 014°48'.

Length 183 m; draft 12.3 m.

Type: Ship (hazmat cat A). MMSI: 249344000.

Date/timePositionNaut miles runAvg speedWind from/ knotsBaromVisibWave heightAir tempDewpointWater temp
2018-Apr-24 00:26N 35°58' E 014°48'0 0.1
2018-Apr-23 23:59N 35°58' E 014°48'0 0.2
2018-Apr-23 23:29N 35°58' E 014°48'0 0.0
2018-Apr-23 22:59N 35°58' E 014°48'0 0.1
2018-Apr-23 22:23N 35°58' E 014°48'0 0.1
2018-Apr-23 21:59N 35°58' E 014°48'0 0.1
2018-Apr-23 21:26N 35°57' E 014°48'0 0.1
2018-Apr-23 20:59N 35°57' E 014°48'0 0.2
2018-Apr-23 20:29N 35°57' E 014°48'0 0.1
2018-Apr-23 19:59N 35°57' E 014°48'0 0.1
2018-Apr-23 19:26N 35°57' E 014°49'0 0.1
2018-Apr-23 18:59N 35°57' E 014°49'0 0.0
2018-Apr-23 16:47N 35°57' E 014°49'0 0.0
2018-Apr-23 16:23N 35°57' E 014°49'0 0.0
2018-Apr-23 14:59N 35°57' E 014°49'0 0.0
2018-Apr-23 14:26N 35°57' E 014°49'0 0.0
2018-Apr-23 13:59N 35°57' E 014°49'0 0.1
2018-Apr-23 13:29N 35°57' E 014°49'0 0.0
2018-Apr-23 12:59N 35°57' E 014°49'0 0.0
2018-Apr-23 12:29N 35°57' E 014°49'0 0.1
2018-Apr-23 11:59N 35°57' E 014°49'0 0.1
2018-Apr-23 11:29N 35°57' E 014°49'0 0.0
2018-Apr-23 09:08N 35°58' E 014°49'0 0.0
2018-Apr-23 07:56N 35°58' E 014°49'0 0.0
2018-Apr-23 07:29N 35°58' E 014°49'0 0.1
2018-Apr-23 06:59N 35°58' E 014°49'0 0.3
2018-Apr-23 05:28N 35°58' E 014°48'5 0.2
2018-Apr-22 09:22N 35°54' E 014°50'0 0.1
2018-Apr-22 09:00N 35°54' E 014°50'0 0.0
2018-Apr-22 08:28N 35°54' E 014°50'0 0.0
2018-Apr-22 07:59N 35°54' E 014°50'0 0.0
2018-Apr-22 07:29N 35°54' E 014°51'0 0.0
2018-Apr-22 06:58N 35°54' E 014°51'0 0.0
2018-Apr-22 06:28N 35°54' E 014°51'0 0.0
2018-Apr-22 05:58N 35°54' E 014°51'0 0.0
2018-Apr-22 05:21N 35°54' E 014°51'0 0.0
2018-Apr-22 04:59N 35°54' E 014°50'0 0.0
2018-Apr-22 04:28N 35°54' E 014°51'0 0.0
2018-Apr-22 03:58N 35°54' E 014°51'0 0.0
2018-Apr-22 03:28N 35°54' E 014°51'0 0.0
2018-Apr-22 02:55N 35°54' E 014°50'0 0.0
2018-Apr-22 02:28N 35°54' E 014°50'0 0.0
2018-Apr-22 01:58N 35°54' E 014°50'0 0.0
2018-Apr-22 01:28N 35°54' E 014°50'0 0.0
2018-Apr-22 00:58N 35°54' E 014°50'0 0.0
2018-Apr-22 00:30N 35°54' E 014°50'0 0.0
2018-Apr-21 23:58N 35°54' E 014°50'0 0.0
2018-Apr-21 23:29N 35°54' E 014°50'0 0.1
2018-Apr-21 22:55N 35°54' E 014°50'0 0.0
2018-Apr-21 22:29N 35°54' E 014°50'0 0.0
2018-Apr-21 21:58N 35°54' E 014°50'0 0.1
2018-Apr-21 21:28N 35°54' E 014°50'0 0.0
2018-Apr-21 20:59N 35°54' E 014°50'0 0.0
2018-Apr-21 20:29N 35°54' E 014°50'0 0.1
2018-Apr-21 19:58N 35°54' E 014°50'0 0.1
2018-Apr-21 19:20N 35°54' E 014°51'0 0.0
2018-Apr-21 18:58N 35°54' E 014°51'0 0.1
2018-Apr-21 18:29N 35°54' E 014°51'0 0.7
2018-Apr-21 18:00N 35°54' E 014°50'2 4.0
2018-Apr-21 17:30N 35°54' E 014°48'0 0.7
2018-Apr-21 16:58N 35°54' E 014°48'0 0.1
2018-Apr-21 16:28N 35°54' E 014°48'0 0.1
2018-Apr-21 15:55N 35°54' E 014°47'0 0.1
2018-Apr-21 15:28N 35°54' E 014°47'0 0.1
2018-Apr-21 14:58N 35°54' E 014°47'0 0.1
2018-Apr-21 14:25N 35°54' E 014°47'0 0.0
2018-Apr-21 13:59N 35°54' E 014°47'0 0.1
2018-Apr-21 13:23N 35°54' E 014°47'0 0.0
2018-Apr-21 12:56N 35°54' E 014°47'0 0.0
2018-Apr-21 12:27N 35°54' E 014°47'0 0.0
2018-Apr-21 11:59N 35°54' E 014°47'0 0.0
2018-Apr-21 11:28N 35°54' E 014°47'0 0.0
2018-Apr-21 10:58N 35°54' E 014°47'0 0.0
2018-Apr-21 10:29N 35°54' E 014°47'0 0.0
2018-Apr-21 09:57N 35°54' E 014°47'0 0.0
2018-Apr-21 09:25N 35°54' E 014°47'0 0.1
2018-Apr-21 08:58N 35°54' E 014°47'0 0.0
2018-Apr-21 08:25N 35°54' E 014°47'0 0.3
2018-Apr-21 07:55N 35°54' E 014°47'1 1.4
2018-Apr-21 07:29N 35°54' E 014°48'4 7.2
2018-Apr-21 06:58N 35°54' E 014°53'612.5
2018-Apr-21 06:29N 35°55' E 015°00'613.0
2018-Apr-21 06:00N 35°55' E 015°08'611.5
2018-Apr-21 05:30N 35°55' E 015°15'713.1
2018-Apr-21 05:00N 35°55' E 015°23'612.3
2018-Apr-21 04:30N 35°55' E 015°31'  
Track history (hours):
 
Tides and Currents Weather Stations Pressure Air Temp Water Temp Dewpoint Dewpoint Depression Visibility Wind Speed Wind Dir Waves Ship Positions

Pink Coral

Last reported at 2018-Apr-24 00:26 UTC. Time now 2018-Apr-24 00:36 UTC.
Position N 35°58' E 014°48'.

Length 183 m; draft 12.3 m.

Type: Ship (hazmat cat A). MMSI: 249344000.

Date/timePositionNaut miles runAvg speedWind from/ knotsBaromVisibWave heightAir tempDewpointWater temp
2018-Apr-24 00:26N 35°58' E 014°48'0 0.1
2018-Apr-23 23:59N 35°58' E 014°48'0 0.2
2018-Apr-23 23:29N 35°58' E 014°48'0 0.0
2018-Apr-23 22:59N 35°58' E 014°48'0 0.1
2018-Apr-23 22:23N 35°58' E 014°48'0 0.1
2018-Apr-23 21:59N 35°58' E 014°48'0 0.1
2018-Apr-23 21:26N 35°57' E 014°48'0 0.1
2018-Apr-23 20:59N 35°57' E 014°48'0 0.2
2018-Apr-23 20:29N 35°57' E 014°48'0 0.1
2018-Apr-23 19:59N 35°57' E 014°48'0 0.1
2018-Apr-23 19:26N 35°57' E 014°49'0 0.1
2018-Apr-23 18:59N 35°57' E 014°49'0 0.0
2018-Apr-23 16:47N 35°57' E 014°49'0 0.0
2018-Apr-23 16:23N 35°57' E 014°49'0 0.0
2018-Apr-23 14:59N 35°57' E 014°49'0 0.0
2018-Apr-23 14:26N 35°57' E 014°49'0 0.0
2018-Apr-23 13:59N 35°57' E 014°49'0 0.1
2018-Apr-23 13:29N 35°57' E 014°49'0 0.0
2018-Apr-23 12:59N 35°57' E 014°49'0 0.0
2018-Apr-23 12:29N 35°57' E 014°49'0 0.1
2018-Apr-23 11:59N 35°57' E 014°49'0 0.1
2018-Apr-23 11:29N 35°57' E 014°49'0 0.0
2018-Apr-23 09:08N 35°58' E 014°49'0 0.0
2018-Apr-23 07:56N 35°58' E 014°49'0 0.0
2018-Apr-23 07:29N 35°58' E 014°49'0 0.1
2018-Apr-23 06:59N 35°58' E 014°49'0 0.3
2018-Apr-23 05:28N 35°58' E 014°48'5 0.2
2018-Apr-22 09:22N 35°54' E 014°50'0 0.1
2018-Apr-22 09:00N 35°54' E 014°50'0 0.0
2018-Apr-22 08:28N 35°54' E 014°50'0 0.0
2018-Apr-22 07:59N 35°54' E 014°50'0 0.0
2018-Apr-22 07:29N 35°54' E 014°51'0 0.0
2018-Apr-22 06:58N 35°54' E 014°51'0 0.0
2018-Apr-22 06:28N 35°54' E 014°51'0 0.0
2018-Apr-22 05:58N 35°54' E 014°51'0 0.0
2018-Apr-22 05:21N 35°54' E 014°51'0 0.0
2018-Apr-22 04:59N 35°54' E 014°50'0 0.0
2018-Apr-22 04:28N 35°54' E 014°51'0 0.0
2018-Apr-22 03:58N 35°54' E 014°51'0 0.0
2018-Apr-22 03:28N 35°54' E 014°51'0 0.0
2018-Apr-22 02:55N 35°54' E 014°50'0 0.0
2018-Apr-22 02:28N 35°54' E 014°50'0 0.0
2018-Apr-22 01:58N 35°54' E 014°50'0 0.0
2018-Apr-22 01:28N 35°54' E 014°50'0 0.0
2018-Apr-22 00:58N 35°54' E 014°50'0 0.0
2018-Apr-22 00:30N 35°54' E 014°50'0 0.0
2018-Apr-21 23:58N 35°54' E 014°50'0 0.0
2018-Apr-21 23:29N 35°54' E 014°50'0 0.1
2018-Apr-21 22:55N 35°54' E 014°50'0 0.0
2018-Apr-21 22:29N 35°54' E 014°50'0 0.0
2018-Apr-21 21:58N 35°54' E 014°50'0 0.1
2018-Apr-21 21:28N 35°54' E 014°50'0 0.0
2018-Apr-21 20:59N 35°54' E 014°50'0 0.0
2018-Apr-21 20:29N 35°54' E 014°50'0 0.1
2018-Apr-21 19:58N 35°54' E 014°50'0 0.1
2018-Apr-21 19:20N 35°54' E 014°51'0 0.0
2018-Apr-21 18:58N 35°54' E 014°51'0 0.1
2018-Apr-21 18:29N 35°54' E 014°51'0 0.7
2018-Apr-21 18:00N 35°54' E 014°50'2 4.0
2018-Apr-21 17:30N 35°54' E 014°48'0 0.7
2018-Apr-21 16:58N 35°54' E 014°48'0 0.1
2018-Apr-21 16:28N 35°54' E 014°48'0 0.1
2018-Apr-21 15:55N 35°54' E 014°47'0 0.1
2018-Apr-21 15:28N 35°54' E 014°47'0 0.1
2018-Apr-21 14:58N 35°54' E 014°47'0 0.1
2018-Apr-21 14:25N 35°54' E 014°47'0 0.0
2018-Apr-21 13:59N 35°54' E 014°47'0 0.1
2018-Apr-21 13:23N 35°54' E 014°47'0 0.0
2018-Apr-21 12:56N 35°54' E 014°47'0 0.0
2018-Apr-21 12:27N 35°54' E 014°47'0 0.0
2018-Apr-21 11:59N 35°54' E 014°47'0 0.0
2018-Apr-21 11:28N 35°54' E 014°47'0 0.0
2018-Apr-21 10:58N 35°54' E 014°47'0 0.0
2018-Apr-21 10:29N 35°54' E 014°47'0 0.0
2018-Apr-21 09:57N 35°54' E 014°47'0 0.0
2018-Apr-21 09:25N 35°54' E 014°47'0 0.1
2018-Apr-21 08:58N 35°54' E 014°47'0 0.0
2018-Apr-21 08:25N 35°54' E 014°47'0 0.3
2018-Apr-21 07:55N 35°54' E 014°47'1 1.4
2018-Apr-21 07:29N 35°54' E 014°48'4 7.2
2018-Apr-21 06:58N 35°54' E 014°53'612.5
2018-Apr-21 06:29N 35°55' E 015°00'613.0
2018-Apr-21 06:00N 35°55' E 015°08'611.5
2018-Apr-21 05:30N 35°55' E 015°15'713.1
2018-Apr-21 05:00N 35°55' E 015°23'612.3
2018-Apr-21 04:30N 35°55' E 015°31'  

Dump ship's entire track history